Direito Ao Destino — CUOC — position and weather

sailwx.info

Track history (hours):
 
Tides and Currents Weather Stations Pressure Air Temp Water Temp Dewpoint Dewpoint Depression Visibility Wind Speed Wind Dir Waves Ship Positions

Direito Ao Destino

Last reported at 2017-Dec-09 01:48 UTC. Time now 2017-Dec-12 14:22 UTC.
Position N 38°20' W 009°17'.

Length 16 m.

Type: Fishing. MMSI: 263412560.

Date/timePositionNaut miles runAvg speedWind from/ knotsBaromVisibWave heightAir tempDewpointWater temp
2017-Dec-09 01:48N 38°20' W 009°17'1 1.9
2017-Dec-09 01:29N 38°20' W 009°17'2 2.7
2017-Dec-09 00:43N 38°19' W 009°16'0 0.4
2017-Dec-09 00:17N 38°19' W 009°16'0 0.7
2017-Dec-08 23:47N 38°19' W 009°16'0 1.0
2017-Dec-08 23:27N 38°19' W 009°16'0 0.8
2017-Dec-08 22:57N 38°20' W 009°17'0 1.0
2017-Dec-08 22:29N 38°20' W 009°17'0 0.7
2017-Dec-08 21:52N 38°20' W 009°18'0 0.4
2017-Dec-08 21:04N 38°20' W 009°18'0 0.6
2017-Dec-08 20:18N 38°21' W 009°18'0 0.5
2017-Dec-08 19:56N 38°21' W 009°18'0 0.5
2017-Dec-08 19:24N 38°21' W 009°18'4 6.3
2017-Dec-08 18:46N 38°23' W 009°13'7 8.6
2017-Dec-08 18:01N 38°26' W 009°06'0 0.0
2017-Dec-07 08:18N 38°26' W 009°07'4 7.3
2017-Dec-07 07:44N 38°22' W 009°08'2 8.7
2017-Dec-07 07:30N 38°20' W 009°09'5 8.9
2017-Dec-07 07:00N 38°16' W 009°11'5 4.4
2017-Dec-07 05:54N 38°16' W 009°17'1 1.8
2017-Dec-07 05:27N 38°17' W 009°17'2 0.7
2017-Dec-07 02:15N 38°17' W 009°14'0 1.0
2017-Dec-07 01:58N 38°17' W 009°14'1 1.0
2017-Dec-07 00:46N 38°16' W 009°13'0 0.7
2017-Dec-07 00:19N 38°16' W 009°12'0 0.2
2017-Dec-06 23:48N 38°16' W 009°12'4 4.6
2017-Dec-06 22:58N 38°19' W 009°16'2 4.3
2017-Dec-06 22:30N 38°20' W 009°18'  
2017-Nov-29 14:29N 38°26' W 009°06'  
Track history (hours):
 
Tides and Currents Weather Stations Pressure Air Temp Water Temp Dewpoint Dewpoint Depression Visibility Wind Speed Wind Dir Waves Ship Positions

Direito Ao Destino

Last reported at 2017-Dec-09 01:48 UTC. Time now 2017-Dec-12 14:22 UTC.
Position N 38°20' W 009°17'.

Length 16 m.

Type: Fishing. MMSI: 263412560.

Date/timePositionNaut miles runAvg speedWind from/ knotsBaromVisibWave heightAir tempDewpointWater temp
2017-Dec-09 01:48N 38°20' W 009°17'1 1.9
2017-Dec-09 01:29N 38°20' W 009°17'2 2.7
2017-Dec-09 00:43N 38°19' W 009°16'0 0.4
2017-Dec-09 00:17N 38°19' W 009°16'0 0.7
2017-Dec-08 23:47N 38°19' W 009°16'0 1.0
2017-Dec-08 23:27N 38°19' W 009°16'0 0.8
2017-Dec-08 22:57N 38°20' W 009°17'0 1.0
2017-Dec-08 22:29N 38°20' W 009°17'0 0.7
2017-Dec-08 21:52N 38°20' W 009°18'0 0.4
2017-Dec-08 21:04N 38°20' W 009°18'0 0.6
2017-Dec-08 20:18N 38°21' W 009°18'0 0.5
2017-Dec-08 19:56N 38°21' W 009°18'0 0.5
2017-Dec-08 19:24N 38°21' W 009°18'4 6.3
2017-Dec-08 18:46N 38°23' W 009°13'7 8.6
2017-Dec-08 18:01N 38°26' W 009°06'0 0.0
2017-Dec-07 08:18N 38°26' W 009°07'4 7.3
2017-Dec-07 07:44N 38°22' W 009°08'2 8.7
2017-Dec-07 07:30N 38°20' W 009°09'5 8.9
2017-Dec-07 07:00N 38°16' W 009°11'5 4.4
2017-Dec-07 05:54N 38°16' W 009°17'1 1.8
2017-Dec-07 05:27N 38°17' W 009°17'2 0.7
2017-Dec-07 02:15N 38°17' W 009°14'0 1.0
2017-Dec-07 01:58N 38°17' W 009°14'1 1.0
2017-Dec-07 00:46N 38°16' W 009°13'0 0.7
2017-Dec-07 00:19N 38°16' W 009°12'0 0.2
2017-Dec-06 23:48N 38°16' W 009°12'4 4.6
2017-Dec-06 22:58N 38°19' W 009°16'2 4.3
2017-Dec-06 22:30N 38°20' W 009°18'  
2017-Nov-29 14:29N 38°26' W 009°06'  

Dump ship's entire track history